createdAt,value
2023-03-26T00:00:16.274Z,29.841
2023-03-26T00:05:19.287Z,29.841
2023-03-26T00:10:19.332Z,29.841
2023-03-26T00:15:19.159Z,29.840
2023-03-26T00:20:19.255Z,29.840
2023-03-26T00:25:19.280Z,29.840
2023-03-26T00:30:19.241Z,29.829
2023-03-26T00:35:19.273Z,29.829
2023-03-26T00:40:19.231Z,29.829
2023-03-26T00:45:16.374Z,29.821
2023-03-26T00:50:16.239Z,29.821
2023-03-26T00:55:19.299Z,29.821
2023-03-26T01:00:19.444Z,29.839
2023-03-26T01:05:19.382Z,29.839
2023-03-26T01:10:19.306Z,29.839
2023-03-26T01:15:19.433Z,29.836
2023-03-26T01:20:19.312Z,29.836
2023-03-26T01:25:19.416Z,29.836
2023-03-26T01:30:19.362Z,29.813
2023-03-26T01:35:19.439Z,29.813
2023-03-26T01:40:16.251Z,29.813
2023-03-26T01:45:16.288Z,29.806
2023-03-26T01:50:19.456Z,29.806
2023-03-26T01:55:19.484Z,29.806
2023-03-26T02:00:19.376Z,29.787
2023-03-26T02:05:19.501Z,29.787
2023-03-26T02:10:19.478Z,29.787
2023-03-26T02:15:19.467Z,29.782
2023-03-26T02:20:19.848Z,29.782
2023-03-26T02:25:19.491Z,29.782
2023-03-26T02:30:16.409Z,29.782
2023-03-26T02:35:16.425Z,29.782
2023-03-26T02:40:19.705Z,29.782
2023-03-26T02:45:19.542Z,29.777
2023-03-26T02:50:19.511Z,29.777
2023-03-26T02:55:19.586Z,29.777
2023-03-26T03:00:19.520Z,29.779
2023-03-26T03:05:19.549Z,29.779
2023-03-26T03:10:19.563Z,29.779
2023-03-26T03:15:19.605Z,29.779
2023-03-26T03:20:19.612Z,29.779
2023-03-26T03:25:16.461Z,29.779
2023-03-26T03:30:16.537Z,29.778
2023-03-26T03:35:19.683Z,29.778
2023-03-26T03:40:19.631Z,29.778
2023-03-26T03:45:19.609Z,29.760
2023-03-26T03:50:19.642Z,29.760
2023-03-26T03:55:19.683Z,29.760
2023-03-26T04:00:18.997Z,29.727
2023-03-26T04:05:18.942Z,29.727
2023-03-26T04:10:19.001Z,29.727
2023-03-26T04:15:18.944Z,29.710
2023-03-26T04:20:18.929Z,29.710
2023-03-26T04:25:19.001Z,29.710
2023-03-26T04:30:19.029Z,29.697
2023-03-26T04:35:16.101Z,29.697
2023-03-26T04:40:16.068Z,29.697
2023-03-26T04:45:18.974Z,29.725
2023-03-26T04:50:18.956Z,29.725
2023-03-26T04:55:18.992Z,29.725
2023-03-26T05:00:19.006Z,29.680
2023-03-26T05:05:19.149Z,29.680
2023-03-26T05:10:19.043Z,29.680
2023-03-26T05:15:19.031Z,29.666
2023-03-26T05:20:19.079Z,29.666
2023-03-26T05:25:15.899Z,29.666
2023-03-26T05:30:16.053Z,29.689
2023-03-26T05:35:19.212Z,29.689
2023-03-26T05:40:19.148Z,29.689
2023-03-26T05:45:19.112Z,29.675
2023-03-26T05:50:19.126Z,29.675
2023-03-26T05:55:19.243Z,29.675
2023-03-26T06:00:19.136Z,29.651
2023-03-26T06:05:19.182Z,29.651
2023-03-26T06:10:19.262Z,29.651
2023-03-26T06:15:19.198Z,29.642
2023-03-26T06:20:16.090Z,29.642
2023-03-26T06:25:16.065Z,29.642
2023-03-26T06:30:19.205Z,29.651
2023-03-26T06:35:19.296Z,29.651
2023-03-26T06:40:19.290Z,29.651
2023-03-26T06:45:19.315Z,29.655
2023-03-26T06:50:19.315Z,29.655
2023-03-26T06:55:19.293Z,29.655
2023-03-26T07:00:19.301Z,29.656
2023-03-26T07:05:19.246Z,29.656
2023-03-26T07:10:19.216Z,29.656
2023-03-26T07:15:16.208Z,29.640
2023-03-26T07:20:19.414Z,29.640
2023-03-26T07:25:19.431Z,29.640
2023-03-26T07:30:19.351Z,29.627
2023-03-26T07:35:19.424Z,29.627
2023-03-26T07:40:19.337Z,29.627
2023-03-26T07:45:19.360Z,29.617
2023-03-26T07:50:19.290Z,29.617
2023-03-26T07:55:19.480Z,29.617
2023-03-26T08:00:19.373Z,29.616
2023-03-26T08:05:16.379Z,29.616
2023-03-26T08:10:16.240Z,29.616
2023-03-26T08:15:19.451Z,29.616
2023-03-26T08:20:19.400Z,29.616
2023-03-26T08:25:19.492Z,29.616
2023-03-26T08:30:19.559Z,29.616
2023-03-26T08:35:19.479Z,29.616
2023-03-26T08:40:19.458Z,29.616
2023-03-26T08:45:19.422Z,29.609
2023-03-26T08:50:19.465Z,29.609
2023-03-26T08:55:19.534Z,29.609
2023-03-26T09:00:16.419Z,29.601
2023-03-26T09:05:16.902Z,29.601
2023-03-26T09:10:19.538Z,29.601
2023-03-26T09:15:19.599Z,29.608
2023-03-26T09:20:19.545Z,29.608
2023-03-26T09:25:19.564Z,29.608
2023-03-26T09:30:19.540Z,29.614
2023-03-26T09:35:19.665Z,29.614
2023-03-26T09:40:19.622Z,29.614
2023-03-26T09:45:19.601Z,29.606
2023-03-26T09:50:19.624Z,29.606
2023-03-26T09:55:16.471Z,29.606
2023-03-26T10:00:19.648Z,29.607
2023-03-26T10:05:19.833Z,29.607
2023-03-26T10:10:19.699Z,29.607
2023-03-26T10:15:19.684Z,29.613
2023-03-26T10:20:19.925Z,29.613
2023-03-26T10:25:19.702Z,29.613
2023-03-26T10:30:19.616Z,29.624
2023-03-26T10:35:19.804Z,29.624
2023-03-26T10:40:19.657Z,29.624
2023-03-26T10:45:16.711Z,29.625
2023-03-26T10:50:22.662Z,29.625
2023-03-26T10:55:19.791Z,29.625
2023-03-26T11:00:19.836Z,29.635
2023-03-26T11:05:19.866Z,29.635
2023-03-26T11:10:19.784Z,29.635
2023-03-26T11:15:19.714Z,29.640
2023-03-26T11:20:19.830Z,29.640
2023-03-26T11:25:19.823Z,29.640
2023-03-26T11:30:19.786Z,29.653
2023-03-26T11:35:40.730Z,29.653
2023-03-26T11:40:16.789Z,29.653
2023-03-26T11:45:16.736Z,29.654
2023-03-26T11:50:19.934Z,29.654
2023-03-26T11:55:19.823Z,29.654
2023-03-26T12:00:20.292Z,29.657
2023-03-26T12:05:19.806Z,29.657
2023-03-26T12:10:19.855Z,29.657
2023-03-26T12:15:20.010Z,29.669
2023-03-26T12:20:19.810Z,29.669
2023-03-26T12:25:19.920Z,29.669
2023-03-26T12:30:19.963Z,29.665
2023-03-26T12:35:16.897Z,29.665
2023-03-26T12:40:22.175Z,29.665
2023-03-26T12:45:19.905Z,29.670
2023-03-26T12:50:34.465Z,29.670
2023-03-26T12:55:20.012Z,29.670
2023-03-26T13:00:20.010Z,29.670
2023-03-26T13:05:19.982Z,29.670
2023-03-26T13:10:19.941Z,29.670
2023-03-26T13:15:20.046Z,29.672
2023-03-26T13:20:20.047Z,29.672
2023-03-26T13:25:16.962Z,29.672
2023-03-26T13:30:16.965Z,29.674
2023-03-26T13:35:20.281Z,29.674
2023-03-26T13:40:20.040Z,29.674
2023-03-26T13:45:20.053Z,29.678
2023-03-26T13:50:20.092Z,29.678
2023-03-26T13:55:20.091Z,29.678
2023-03-26T14:00:20.074Z,29.685
2023-03-26T14:05:20.183Z,29.685
2023-03-26T14:10:20.298Z,29.685
2023-03-26T14:15:20.219Z,29.688
2023-03-26T14:20:17.028Z,29.688
2023-03-26T14:25:20.406Z,29.688
2023-03-26T14:30:20.128Z,29.687
2023-03-26T14:35:20.430Z,29.687
2023-03-26T14:40:20.194Z,29.687
2023-03-26T14:45:20.348Z,29.690
2023-03-26T14:50:20.170Z,29.690
2023-03-26T14:55:20.137Z,29.690
2023-03-26T15:00:20.443Z,29.693
2023-03-26T15:05:20.200Z,29.693
2023-03-26T15:10:17.157Z,29.693
2023-03-26T15:15:17.171Z,29.700
2023-03-26T15:20:20.310Z,29.700
2023-03-26T15:25:20.272Z,29.700
2023-03-26T15:30:20.239Z,29.699
2023-03-26T15:35:20.330Z,29.699
2023-03-26T15:40:20.246Z,29.699
2023-03-26T15:45:20.279Z,29.699
2023-03-26T15:50:20.349Z,29.699
2023-03-26T15:55:20.434Z,29.699
2023-03-26T16:00:20.300Z,29.701
2023-03-26T16:05:17.314Z,29.701
2023-03-26T16:10:17.321Z,29.701
2023-03-26T16:15:20.420Z,29.699
2023-03-26T16:20:20.420Z,29.699
2023-03-26T16:25:27.821Z,29.699
2023-03-26T16:30:20.885Z,29.693
2023-03-26T16:35:20.365Z,29.693
2023-03-26T16:40:20.436Z,29.693
2023-03-26T16:45:20.498Z,29.694
2023-03-26T16:50:20.520Z,29.694
2023-03-26T16:55:20.434Z,29.694
2023-03-26T17:00:17.367Z,29.692
2023-03-26T17:05:20.631Z,29.692
2023-03-26T17:10:20.343Z,29.692
2023-03-26T17:15:20.376Z,29.693
2023-03-26T17:20:20.614Z,29.693
2023-03-26T17:25:20.489Z,29.693
2023-03-26T17:30:20.519Z,29.687
2023-03-26T17:35:20.441Z,29.687
2023-03-26T17:40:20.570Z,29.687
2023-03-26T17:45:20.528Z,29.685
2023-03-26T17:50:17.343Z,29.685
2023-03-26T17:55:17.476Z,29.685
2023-03-26T18:00:20.560Z,29.685
2023-03-26T18:05:20.531Z,29.685
2023-03-26T18:10:20.569Z,29.685
2023-03-26T18:15:20.576Z,29.685
2023-03-26T18:20:20.578Z,29.685
2023-03-26T18:25:20.585Z,29.685
2023-03-26T18:30:20.656Z,29.684
2023-03-26T18:35:20.720Z,29.684
2023-03-26T18:40:18.652Z,29.684
2023-03-26T18:45:18.611Z,29.685
2023-03-26T18:50:18.635Z,29.685
2023-03-26T18:55:18.847Z,29.685
2023-03-26T19:00:18.682Z,29.693
2023-03-26T19:05:18.677Z,29.693
2023-03-26T19:10:18.591Z,29.693
2023-03-26T19:15:18.666Z,29.697
2023-03-26T19:20:18.644Z,29.697
2023-03-26T19:25:15.628Z,29.697
2023-03-26T19:30:18.721Z,29.699
2023-03-26T19:35:18.800Z,29.699
2023-03-26T19:40:18.667Z,29.699
2023-03-26T19:45:18.749Z,29.702
2023-03-26T19:50:18.783Z,29.702
2023-03-26T19:55:18.822Z,29.702
2023-03-26T20:00:18.755Z,29.702
2023-03-26T20:05:18.872Z,29.702
2023-03-26T20:10:18.783Z,29.702
2023-03-26T20:15:19.326Z,29.706
2023-03-26T20:20:15.594Z,29.706
2023-03-26T20:25:25.206Z,29.706
2023-03-26T20:30:27.434Z,29.714
2023-03-26T20:35:18.839Z,29.714
2023-03-26T20:40:18.798Z,29.714
2023-03-26T20:45:18.827Z,29.715
2023-03-26T20:50:18.751Z,29.715
2023-03-26T20:55:18.721Z,29.715
2023-03-26T21:00:16.071Z,29.723
2023-03-26T21:05:18.887Z,29.723
2023-03-26T21:10:15.701Z,29.723
2023-03-26T21:15:23.442Z,29.730
2023-03-26T21:20:18.845Z,29.730
2023-03-26T21:25:18.847Z,29.730
2023-03-26T21:30:19.003Z,29.732
2023-03-26T21:35:19.068Z,29.732
2023-03-26T21:40:18.790Z,29.732
2023-03-26T21:45:18.846Z,29.740
2023-03-26T21:50:18.904Z,29.740
2023-03-26T21:55:18.912Z,29.740
2023-03-26T22:00:15.892Z,29.742
2023-03-26T22:05:15.885Z,29.742
2023-03-26T22:10:18.911Z,29.742
2023-03-26T22:15:19.065Z,29.745
2023-03-26T22:20:18.974Z,29.745
2023-03-26T22:25:18.911Z,29.745
2023-03-26T22:30:18.982Z,29.747
2023-03-26T22:35:19.122Z,29.747
2023-03-26T22:40:19.082Z,29.747
2023-03-26T22:45:19.023Z,29.759
2023-03-26T22:50:19.014Z,29.759
2023-03-26T22:55:15.961Z,29.759
2023-03-26T23:00:15.866Z,29.771
2023-03-26T23:05:19.191Z,29.771
2023-03-26T23:10:19.166Z,29.771
2023-03-26T23:15:19.073Z,29.775
2023-03-26T23:20:19.010Z,29.775
2023-03-26T23:25:19.000Z,29.775
2023-03-26T23:30:16.056Z,29.788
2023-03-26T23:35:19.205Z,29.788
2023-03-26T23:40:19.074Z,29.788
2023-03-26T23:45:19.303Z,29.791
2023-03-26T23:50:15.981Z,29.791
2023-03-26T23:55:19.109Z,29.791
